Time;durP1;ratioP1;P1;durP2;ratioP2;P2;SDS_P1;SDS_P2;PMS_P1;PMS_P2;Temp;Humidity;BMP_temperature;BMP_pressure;BME280_temperature;BME280_humidity;BME280_pressure;Samples;Min_cycle;Max_cycle;Signal;HPM_P1;HPM_P2
2024/03/21 00:00:35;;;;;;;37.53;25.60;;;8.80;99.90;;;;;;4959275;28;20133;-69
2024/03/21 00:03:02;;;;;;;32.13;26.50;;;8.70;99.90;;;;;;4941434;28;20070;-68
2024/03/21 00:05:30;;;;;;;30.25;26.27;;;8.70;99.90;;;;;;4966126;28;20038;-70
2024/03/21 00:07:56;;;;;;;28.48;25.42;;;8.70;99.90;;;;;;4957478;28;20042;-69
2024/03/21 00:10:23;;;;;;;32.83;25.40;;;8.70;99.90;;;;;;4953669;28;20046;-69
2024/03/21 00:12:50;;;;;;;35.72;26.20;;;8.70;99.90;;;;;;4959592;28;20042;-69
2024/03/21 00:15:17;;;;;;;35.25;26.20;;;8.70;99.90;;;;;;4968190;28;20113;-69
2024/03/21 00:17:47;;;;;;;30.95;26.73;;;8.60;99.90;;;;;;4973997;28;20499;-69
2024/03/21 00:20:14;;;;;;;31.60;26.00;;;8.50;99.90;;;;;;4952536;28;20574;-69
2024/03/21 00:22:43;;;;;;;34.28;27.85;;;8.50;99.90;;;;;;4956008;28;20046;-69
2024/03/21 00:25:09;;;;;;;31.27;26.13;;;8.50;99.90;;;;;;4952357;28;20139;-69
2024/03/21 00:27:37;;;;;;;33.10;27.17;;;8.50;99.90;;;;;;4943014;28;20038;-69
2024/03/21 00:30:04;;;;;;;41.40;29.50;;;8.50;99.90;;;;;;4955733;28;20050;-69
2024/03/21 00:32:31;;;;;;;39.47;28.83;;;8.50;99.90;;;;;;4970752;28;20054;-67
2024/03/21 00:34:57;;;;;;;32.20;26.30;;;8.30;99.90;;;;;;4956627;28;20073;-69
2024/03/21 00:37:24;;;;;;;34.95;27.63;;;8.20;99.90;;;;;;4970391;28;20122;-69
2024/03/21 00:39:53;;;;;;;36.40;27.02;;;8.20;99.90;;;;;;4963088;28;20054;-68
2024/03/21 00:42:20;;;;;;;35.40;28.40;;;8.10;99.90;;;;;;4957838;28;20038;-70
2024/03/21 00:44:46;;;;;;;38.13;28.80;;;8.10;99.90;;;;;;4972124;28;20374;-69
2024/03/21 00:47:12;;;;;;;38.42;29.67;;;8.00;99.90;;;;;;4973977;28;20142;-69
2024/03/21 00:49:39;;;;;;;39.88;29.00;;;8.00;99.90;;;;;;4979762;28;20050;-70
2024/03/21 00:52:05;;;;;;;46.22;30.98;;;8.00;99.90;;;;;;4958139;28;20046;-68
2024/03/21 00:54:32;;;;;;;48.47;32.85;;;8.00;99.90;;;;;;4953510;28;20050;-69
2024/03/21 00:56:58;;;;;;;44.30;31.27;;;7.90;99.90;;;;;;4968315;28;20065;-69
2024/03/21 00:59:24;;;;;;;41.90;30.92;;;7.80;99.90;;;;;;4964171;28;20408;-69
2024/03/21 01:01:50;;;;;;;37.53;29.25;;;7.80;99.90;;;;;;4956147;28;20046;-70
2024/03/21 01:04:17;;;;;;;39.58;30.10;;;7.80;99.90;;;;;;4950168;28;20052;-69
2024/03/21 01:06:46;;;;;;;41.38;28.63;;;7.80;99.90;;;;;;4965897;28;20039;-68
2024/03/21 01:09:14;;;;;;;38.42;29.63;;;7.70;99.90;;;;;;4967110;28;20043;-69
2024/03/21 01:11:40;;;;;;;50.08;33.00;;;7.80;99.90;;;;;;4940384;28;20121;-70
2024/03/21 01:14:07;;;;;;;43.90;30.00;;;7.60;99.90;;;;;;4956132;28;20688;-71
2024/03/21 01:16:33;;;;;;;59.90;35.00;;;7.60;99.90;;;;;;4949548;28;20705;-69
2024/03/21 01:19:00;;;;;;;53.00;34.92;;;7.80;99.90;;;;;;4947624;28;20066;-69
2024/03/21 01:21:26;;;;;;;52.15;34.30;;;7.80;99.90;;;;;;4947135;28;20057;-70
2024/03/21 01:23:53;;;;;;;49.55;31.40;;;7.80;99.90;;;;;;4972611;28;20049;-69
2024/03/21 01:26:19;;;;;;;53.50;34.08;;;7.70;99.90;;;;;;4950214;28;20038;-69
2024/03/21 01:28:45;;;;;;;50.83;33.35;;;7.70;99.90;;;;;;4961414;28;20053;-69
2024/03/21 01:31:14;;;;;;;45.47;32.17;;;7.70;99.90;;;;;;4961256;28;20050;-68
2024/03/21 01:33:42;;;;;;;47.40;30.73;;;7.70;99.90;;;;;;4959006;28;20061;-69
2024/03/21 01:36:08;;;;;;;43.55;28.98;;;7.70;99.90;;;;;;4957829;28;20050;-69
2024/03/21 01:38:39;;;;;;;45.63;30.55;;;7.80;99.90;;;;;;4973828;28;20050;-69
2024/03/21 01:41:06;;;;;;;42.60;30.80;;;7.70;99.90;;;;;;4972727;28;20034;-69
2024/03/21 01:43:33;;;;;;;47.70;30.10;;;7.70;99.90;;;;;;4961246;28;20050;-70
2024/03/21 01:46:18;;;;;;;38.83;29.98;;;7.70;99.90;;;;;;4976255;28;20058;-69
2024/03/21 01:48:46;;;;;;;;;;;7.70;99.90;;;;;;4961077;28;20050;-69
2024/03/21 01:51:14;;;;;;;41.30;29.17;;;7.70;99.90;;;;;;4958791;28;20688;-69
2024/03/21 01:53:41;;;;;;;40.78;29.27;;;7.70;99.90;;;;;;4947613;28;20077;-69
2024/03/21 01:56:08;;;;;;;42.78;30.80;;;7.60;99.90;;;;;;4971224;28;20050;-70
2024/03/21 01:58:34;;;;;;;42.58;30.33;;;7.80;99.90;;;;;;4976794;28;21144;-70
2024/03/21 02:01:21;;;;;;;41.38;29.02;;;7.80;99.90;;;;;;4956935;28;20097;-69
2024/03/21 02:06:39;;;;;;;41.22;31.77;;;7.80;99.90;;;;;;4970377;28;20703;-70
2024/03/21 02:09:09;;;;;;;60.92;35.90;;;7.80;99.90;;;;;;4961686;28;20665;-70
2024/03/21 02:11:35;;;;;;;41.70;30.50;;;7.80;99.90;;;;;;4970139;28;20053;-69
2024/03/21 02:14:01;;;;;;;46.67;32.13;;;7.80;99.90;;;;;;4955429;28;20054;-69
2024/03/21 02:16:27;;;;;;;53.72;32.45;;;7.80;99.90;;;;;;4969949;28;20038;-69
2024/03/21 02:18:54;;;;;;;52.67;33.13;;;7.80;99.90;;;;;;4978554;28;20054;-70
2024/03/21 02:24:06;;;;;;;52.15;34.40;;;7.50;99.90;;;;;;4970822;28;20611;-69
2024/03/21 02:26:32;;;;;;;49.55;32.60;;;7.50;99.90;;;;;;4937886;28;20034;-69
2024/03/21 02:28:58;;;;;;;44.55;32.15;;;7.50;99.90;;;;;;4961471;28;20419;-68
2024/03/21 02:31:24;;;;;;;50.70;33.75;;;7.50;99.90;;;;;;4957205;28;20070;-68
2024/03/21 02:33:50;;;;;;;49.17;34.17;;;7.50;99.90;;;;;;4959646;28;20049;-70
2024/03/21 02:36:17;;;;;;;47.03;33.35;;;7.50;99.90;;;;;;4941627;28;20061;-69
2024/03/21 02:38:43;;;;;;;49.35;33.33;;;7.40;99.90;;;;;;4939068;28;20715;-69
2024/03/21 02:41:09;;;;;;;52.63;34.85;;;7.50;99.90;;;;;;4976604;28;20130;-69
2024/03/21 02:43:35;;;;;;;51.15;32.88;;;7.60;99.90;;;;;;4966415;28;20046;-71
2024/03/21 02:46:01;;;;;;;52.08;33.95;;;7.70;99.90;;;;;;4968931;28;20384;-69
2024/03/21 02:48:30;;;;;;;62.13;37.90;;;7.60;99.90;;;;;;4957156;28;20101;-69
2024/03/21 02:50:56;;;;;;;62.95;36.55;;;7.70;99.90;;;;;;4969079;28;20046;-69
2024/03/21 02:53:22;;;;;;;68.45;35.50;;;7.60;99.90;;;;;;4953499;28;20093;-69
2024/03/21 02:55:48;;;;;;;59.72;35.22;;;7.50;99.90;;;;;;4956638;28;20102;-69
2024/03/21 02:58:14;;;;;;;52.90;32.88;;;7.50;99.90;;;;;;4947031;28;20055;-70
2024/03/21 03:00:40;;;;;;;62.78;33.40;;;7.50;99.90;;;;;;4950282;28;20065;-70
2024/03/21 03:03:07;;;;;;;62.00;34.60;;;7.50;99.90;;;;;;4974198;28;20042;-70
2024/03/21 03:05:42;;;;;;;60.67;37.42;;;7.60;99.90;;;;;;4949805;28;20034;-70
2024/03/21 03:08:09;;;;;;;59.50;35.75;;;7.70;99.90;;;;;;4956696;28;20046;-69
2024/03/21 03:10:38;;;;;;;63.67;36.65;;;7.70;99.90;;;;;;4952496;28;20034;-69
2024/03/21 03:13:04;;;;;;;64.38;36.20;;;7.70;99.90;;;;;;4958126;28;20043;-69
2024/03/21 03:15:31;;;;;;;59.38;35.45;;;7.60;99.90;;;;;;4952690;28;20041;-70
2024/03/21 03:17:57;;;;;;;59.42;35.03;;;7.50;99.90;;;;;;4940827;28;20050;-69
2024/03/21 03:20:23;;;;;;;59.22;36.13;;;7.60;99.90;;;;;;4968664;28;20046;-68
2024/03/21 03:22:49;;;;;;;51.67;33.70;;;7.50;99.90;;;;;;4970713;28;20057;-69
2024/03/21 03:25:15;;;;;;;54.67;35.75;;;7.50;99.90;;;;;;4949481;28;20069;-69
2024/03/21 03:27:43;;;;;;;54.72;34.80;;;7.50;99.90;;;;;;4952062;28;20073;-69
2024/03/21 03:30:09;;;;;;;57.40;32.75;;;7.60;99.90;;;;;;4976405;28;20656;-68
2024/03/21 03:32:47;;;;;;;57.08;36.13;;;7.70;99.90;;;;;;4972067;28;20054;-70
2024/03/21 03:37:59;;;;;;;53.78;35.38;;;7.50;99.90;;;;;;4970722;28;20716;-69
2024/03/21 03:40:26;;;;;;;57.05;33.78;;;7.40;99.90;;;;;;4940209;28;20141;-68
2024/03/21 03:42:52;;;;;;;49.30;33.67;;;7.40;99.90;;;;;;4970515;28;20042;-69
2024/03/21 03:45:21;;;;;;;54.58;32.80;;;7.40;99.90;;;;;;4970572;28;20046;-69
2024/03/21 03:47:48;;;;;;;52.22;32.80;;;7.40;99.90;;;;;;4963320;28;20054;-70
2024/03/21 03:50:14;;;;;;;52.40;34.80;;;7.40;99.90;;;;;;4962608;28;20068;-70
2024/03/21 03:52:40;;;;;;;54.83;33.42;;;7.50;99.90;;;;;;4945350;28;20042;-68
2024/03/21 03:57:58;;;;;;;50.30;32.08;;;7.30;99.90;;;;;;4953037;28;20057;-68
2024/03/21 04:00:24;;;;;;;57.40;32.15;;;7.30;99.90;;;;;;4970362;28;20046;-69
2024/03/21 04:02:50;;;;;;;56.47;33.08;;;7.30;99.90;;;;;;4962918;28;20046;-69
2024/03/21 04:05:17;;;;;;;51.55;32.42;;;7.40;99.90;;;;;;4954302;28;20447;-70
2024/03/21 04:07:46;;;;;;;57.03;32.88;;;7.50;99.90;;;;;;4949235;28;20470;-69
2024/03/21 04:10:13;;;;;;;50.90;33.45;;;7.40;99.90;;;;;;4950976;28;20046;-69
2024/03/21 04:12:42;;;;;;;52.00;31.67;;;7.50;99.90;;;;;;4971855;28;20674;-69
2024/03/21 04:15:09;;;;;;;51.13;31.58;;;7.50;99.90;;;;;;4949695;28;20106;-69
2024/03/21 04:17:35;;;;;;;50.78;31.73;;;7.50;99.90;;;;;;4969281;28;20061;-69
2024/03/21 04:20:06;;;;;;;52.08;31.38;;;7.50;99.90;;;;;;4954123;28;20054;-68
2024/03/21 04:22:33;;;;;;;46.42;30.63;;;7.40;99.90;;;;;;4952436;28;20031;-70
2024/03/21 04:24:59;;;;;;;51.38;31.35;;;7.50;99.90;;;;;;4941520;28;20043;-69
2024/03/21 04:27:25;;;;;;;46.85;31.20;;;7.40;99.90;;;;;;4963910;28;20685;-68
2024/03/21 04:29:51;;;;;;;47.75;29.05;;;7.50;99.90;;;;;;4975434;28;20075;-69
2024/03/21 04:32:17;;;;;;;43.22;30.45;;;7.50;99.90;;;;;;4958155;28;20037;-70
2024/03/21 04:34:44;;;;;;;52.22;32.92;;;7.60;99.90;;;;;;4937120;28;20592;-69
2024/03/21 04:37:18;;;;;;;43.75;31.05;;;7.70;99.90;;;;;;4955460;28;20050;-68
2024/03/21 04:39:45;;;;;;;45.08;30.30;;;7.80;99.90;;;;;;4950801;28;20065;-69
2024/03/21 04:42:15;;;;;;;48.97;33.42;;;7.90;99.90;;;;;;4956097;28;20142;-69
2024/03/21 04:44:43;;;;;;;55.78;33.92;;;8.00;99.90;;;;;;4951964;28;20377;-69
2024/03/21 04:47:09;;;;;;;40.63;30.85;;;8.00;99.90;;;;;;4955526;28;20524;-69
2024/03/21 04:49:36;;;;;;;43.50;31.45;;;8.10;99.90;;;;;;4966050;28;20042;-70
2024/03/21 04:52:03;;;;;;;44.03;30.35;;;8.20;99.90;;;;;;4973519;28;20038;-70
2024/03/21 04:54:29;;;;;;;37.33;29.08;;;8.30;99.90;;;;;;4966213;28;20058;-68
2024/03/21 04:56:58;;;;;;;42.00;29.08;;;8.30;99.90;;;;;;4959305;28;20138;-68
2024/03/21 04:59:28;;;;;;;41.45;29.30;;;8.40;99.90;;;;;;4981213;28;20042;-68
2024/03/21 05:01:57;;;;;;;36.28;28.48;;;8.50;99.90;;;;;;4938236;28;20042;-68
2024/03/21 05:04:23;;;;;;;42.72;29.17;;;8.40;99.90;;;;;;4957574;28;20423;-69
2024/03/21 05:06:52;;;;;;;45.53;29.30;;;8.30;99.90;;;;;;4971696;28;20151;-69
2024/03/21 05:09:18;;;;;;;40.53;29.13;;;8.40;99.90;;;;;;4956763;28;20042;-69
2024/03/21 05:11:44;;;;;;;37.85;27.60;;;8.40;99.90;;;;;;4929658;28;20073;-69
2024/03/21 05:14:10;;;;;;;37.00;28.65;;;8.40;99.90;;;;;;4961629;28;20061;-68
2024/03/21 05:16:36;;;;;;;44.60;30.80;;;8.50;99.90;;;;;;4950642;28;20042;-68
2024/03/21 05:19:02;;;;;;;42.78;30.13;;;8.60;99.90;;;;;;4969685;28;20101;-69
2024/03/21 05:21:29;;;;;;;39.97;28.45;;;8.70;99.90;;;;;;4947791;28;20046;-68
2024/03/21 05:23:55;;;;;;;41.03;31.35;;;8.70;99.90;;;;;;4940903;28;20109;-70
2024/03/21 05:26:21;;;;;;;38.65;29.20;;;8.80;99.90;;;;;;4935736;28;20054;-70
2024/03/21 05:28:48;;;;;;;39.20;29.88;;;8.90;99.90;;;;;;4983476;28;20052;-69
2024/03/21 05:31:26;;;;;;;42.45;31.90;;;8.90;99.90;;;;;;4952927;28;20112;-70
2024/03/21 05:33:54;;;;;;;39.40;31.88;;;8.90;99.90;;;;;;4949646;28;20047;-69
2024/03/21 05:36:21;;;;;;;40.38;31.60;;;8.90;99.90;;;;;;4954728;28;20060;-70
2024/03/21 05:38:47;;;;;;;36.72;30.05;;;9.10;99.90;;;;;;4955395;28;20065;-69
2024/03/21 05:41:14;;;;;;;39.05;29.73;;;9.20;99.90;;;;;;4951944;28;20042;-69
2024/03/21 05:43:41;;;;;;;43.42;33.63;;;9.10;99.90;;;;;;4948864;28;20051;-69
2024/03/21 05:46:07;;;;;;;46.65;35.58;;;9.10;99.90;;;;;;4953437;28;20042;-69
2024/03/21 05:48:34;;;;;;;53.13;40.20;;;9.10;99.90;;;;;;4966507;28;20212;-69
2024/03/21 05:51:02;;;;;;;58.50;40.40;;;9.10;99.90;;;;;;4949484;28;20046;-70
2024/03/21 05:53:29;;;;;;;73.07;44.15;;;9.10;99.90;;;;;;4939847;28;20535;-68
2024/03/21 05:56:05;;;;;;;71.75;45.50;;;9.20;99.90;;;;;;4936417;28;20046;-70
2024/03/21 05:58:35;;;;;;;71.22;45.65;;;9.40;99.90;;;;;;4953930;28;20138;-68
2024/03/21 06:01:08;;;;;;;67.55;45.63;;;9.40;99.90;;;;;;4967314;28;20042;-70
2024/03/21 06:03:34;;;;;;;81.95;49.67;;;9.50;99.90;;;;;;4951377;28;20054;-70
2024/03/21 06:06:03;;;;;;;76.70;48.80;;;9.60;99.90;;;;;;4959355;28;20039;-69
2024/03/21 06:08:29;;;;;;;78.07;50.90;;;9.60;99.90;;;;;;4965345;28;20050;-69
2024/03/21 06:10:55;;;;;;;82.35;51.63;;;9.70;99.90;;;;;;4931586;28;20053;-69
2024/03/21 06:13:21;;;;;;;79.65;51.78;;;9.70;99.90;;;;;;4974370;28;20053;-69
2024/03/21 06:15:48;;;;;;;92.78;56.85;;;9.70;99.90;;;;;;4967729;28;20050;-70
2024/03/21 06:18:15;;;;;;;94.10;57.22;;;9.70;99.90;;;;;;4953750;28;20046;-69
2024/03/21 06:20:41;;;;;;;93.38;58.53;;;9.80;99.90;;;;;;4966424;28;20038;-69
2024/03/21 06:23:08;;;;;;;98.38;58.35;;;9.80;99.90;;;;;;4972595;28;20042;-69
2024/03/21 06:25:34;;;;;;;105.85;62.63;;;9.80;99.90;;;;;;4935634;28;20038;-68
2024/03/21 06:28:01;;;;;;;112.45;65.00;;;9.90;99.90;;;;;;4956766;28;20141;-69
2024/03/21 06:30:28;;;;;;;107.28;65.32;;;9.90;99.90;;;;;;4956004;28;20075;-70
2024/03/21 06:32:54;;;;;;;110.55;67.68;;;9.90;99.90;;;;;;4946311;28;21006;-70
2024/03/21 06:35:20;;;;;;;119.65;69.45;;;10.00;99.90;;;;;;4951705;28;20054;-70
2024/03/21 06:37:50;;;;;;;109.15;66.35;;;10.10;99.90;;;;;;4951583;28;20050;-69
2024/03/21 06:40:17;;;;;;;114.47;65.35;;;10.20;99.90;;;;;;4957173;28;20058;-70
2024/03/21 06:42:44;;;;;;;106.57;63.70;;;10.20;99.90;;;;;;4948749;28;20047;-70
2024/03/21 06:45:10;;;;;;;111.35;64.78;;;10.30;99.90;;;;;;4953038;28;20116;-69
2024/03/21 06:47:40;;;;;;;109.05;62.10;;;10.40;99.90;;;;;;4954139;28;20050;-69
2024/03/21 06:50:10;;;;;;;99.82;60.05;;;10.50;99.90;;;;;;4957161;28;20647;-70
2024/03/21 06:52:37;;;;;;;101.07;57.90;;;10.60;99.90;;;;;;4948598;28;20046;-67
2024/03/21 06:55:03;;;;;;;91.63;57.92;;;10.60;99.90;;;;;;4939258;28;20037;-71
2024/03/21 06:57:33;;;;;;;93.65;54.90;;;10.60;99.90;;;;;;4941819;28;20046;-70
2024/03/21 06:59:59;;;;;;;93.68;54.22;;;10.60;99.90;;;;;;4938015;28;20046;-69
2024/03/21 07:02:25;;;;;;;97.70;53.60;;;10.60;99.90;;;;;;4951092;28;20093;-70
2024/03/21 07:04:51;;;;;;;86.63;52.50;;;10.70;99.90;;;;;;4977995;28;20629;-70
2024/03/21 07:07:17;;;;;;;90.88;49.38;;;10.60;99.90;;;;;;4953402;28;20034;-71
2024/03/21 07:09:43;;;;;;;87.60;48.15;;;10.70;99.90;;;;;;4951080;28;20764;-70
2024/03/21 07:12:09;;;;;;;83.28;48.30;;;10.70;99.90;;;;;;4951165;28;20046;-70
2024/03/21 07:14:35;;;;;;;84.25;50.13;;;10.70;99.90;;;;;;4951198;28;20111;-70
2024/03/21 07:17:02;;;;;;;85.22;48.00;;;10.70;99.90;;;;;;4950633;28;20046;-70
2024/03/21 07:19:34;;;;;;;75.97;44.90;;;10.70;99.90;;;;;;4972660;28;20050;-69
2024/03/21 07:22:04;;;;;;;85.45;47.72;;;10.70;99.90;;;;;;4952532;28;20035;-69
2024/03/21 07:24:32;;;;;;;80.20;45.05;;;10.80;99.90;;;;;;4950777;28;20113;-70
2024/03/21 07:26:59;;;;;;;82.28;49.38;;;10.80;99.90;;;;;;4962669;28;20104;-70
2024/03/21 07:29:27;;;;;;;73.28;44.88;;;10.80;99.90;;;;;;4973748;28;20038;-71
2024/03/21 07:31:53;;;;;;;71.90;41.90;;;10.80;99.90;;;;;;4967466;28;20054;-70
2024/03/21 07:34:19;;;;;;;74.45;44.42;;;10.80;99.90;;;;;;4952757;28;20047;-71
2024/03/21 07:36:45;;;;;;;68.55;41.90;;;10.80;99.90;;;;;;4933363;28;20043;-69
2024/03/21 07:39:11;;;;;;;73.38;42.83;;;10.80;99.90;;;;;;4974708;28;20195;-69
2024/03/21 07:41:37;;;;;;;65.13;39.40;;;10.70;99.90;;;;;;4957328;28;20054;-70
2024/03/21 07:44:03;;;;;;;55.72;35.75;;;10.70;99.90;;;;;;4966130;28;20053;-71
2024/03/21 07:46:29;;;;;;;55.83;36.47;;;10.70;99.90;;;;;;4952686;28;20488;-68
2024/03/21 07:48:59;;;;;;;52.72;33.60;;;10.80;99.90;;;;;;4933552;28;20057;-70
2024/03/21 07:51:25;;;;;;;50.95;33.33;;;10.80;99.90;;;;;;4961425;28;20042;-69
2024/03/21 07:53:51;;;;;;;57.65;35.10;;;10.80;99.90;;;;;;4947351;28;23003;-70
2024/03/21 07:56:17;;;;;;;53.25;34.90;;;10.70;99.90;;;;;;4959168;28;20069;-72
2024/03/21 07:58:43;;;;;;;57.42;34.85;;;10.70;99.90;;;;;;4954890;28;20106;-69
2024/03/21 08:01:09;;;;;;;52.97;34.47;;;10.70;99.90;;;;;;4962084;28;20683;-70
2024/03/21 08:03:35;;;;;;;52.65;35.40;;;10.80;99.90;;;;;;4953033;28;20038;-70
2024/03/21 08:06:02;;;;;;;53.75;33.17;;;10.70;99.90;;;;;;4959816;28;20756;-69
2024/03/21 08:08:28;;;;;;;46.17;32.83;;;10.70;99.90;;;;;;4971638;28;20049;-70
2024/03/21 08:10:54;;;;;;;52.50;34.17;;;10.70;99.90;;;;;;4957835;28;20050;-69
2024/03/21 08:13:20;;;;;;;57.10;33.50;;;10.60;99.90;;;;;;4977097;28;20711;-71
2024/03/21 08:15:47;;;;;;;58.15;35.65;;;10.60;99.90;;;;;;4948294;28;20041;-70
2024/03/21 08:18:13;;;;;;;55.75;32.78;;;10.60;99.90;;;;;;4955049;28;20652;-69
2024/03/21 08:20:39;;;;;;;58.72;33.53;;;10.50;99.90;;;;;;4951203;28;20042;-70
2024/03/21 08:23:05;;;;;;;55.60;33.35;;;10.40;99.90;;;;;;4969248;28;20855;-71
2024/03/21 08:25:35;;;;;;;54.83;34.25;;;10.40;99.90;;;;;;4970356;28;20046;-70
2024/03/21 08:28:02;;;;;;;43.08;28.00;;;10.50;99.90;;;;;;4933266;28;20046;-70
2024/03/21 08:30:28;;;;;;;46.15;28.90;;;10.50;99.90;;;;;;4968191;28;20089;-70
2024/03/21 08:32:54;;;;;;;40.17;27.05;;;10.40;99.90;;;;;;4952902;28;20625;-71
2024/03/21 08:35:21;;;;;;;38.38;28.42;;;10.50;99.90;;;;;;4967964;28;21263;-70
2024/03/21 08:37:47;;;;;;;37.33;27.50;;;10.60;99.90;;;;;;4971830;28;20051;-69
2024/03/21 08:40:16;;;;;;;31.85;25.63;;;10.70;99.90;;;;;;4969137;28;20688;-70
2024/03/21 08:42:42;;;;;;;31.00;26.15;;;10.80;99.90;;;;;;4954077;28;20160;-69
2024/03/21 08:45:09;;;;;;;32.38;28.23;;;10.90;99.90;;;;;;4954893;28;20877;-69
2024/03/21 08:47:36;;;;;;;31.05;27.77;;;11.30;99.90;;;;;;4971855;28;20112;-71
2024/03/21 08:50:03;;;;;;;32.33;29.02;;;11.60;99.90;;;;;;4962233;28;20137;-71
2024/03/21 08:52:30;;;;;;;32.60;29.23;;;11.70;99.90;;;;;;4961091;28;20559;-68
2024/03/21 08:54:56;;;;;;;31.73;28.85;;;11.90;99.90;;;;;;4949368;28;20086;-70
2024/03/21 08:57:23;;;;;;;28.95;26.48;;;11.80;99.90;;;;;;4961448;28;20272;-69
2024/03/21 08:59:50;;;;;;;30.55;27.77;;;11.70;99.90;;;;;;4953113;28;20109;-68
2024/03/21 09:02:18;;;;;;;31.52;28.98;;;11.40;99.90;;;;;;4964685;28;20038;-69
2024/03/21 09:04:44;;;;;;;29.95;27.25;;;11.50;99.90;;;;;;4952117;28;20046;-70
2024/03/21 09:07:11;;;;;;;29.10;26.48;;;11.60;99.90;;;;;;4950020;28;20633;-70
2024/03/21 09:09:37;;;;;;;29.90;27.38;;;11.60;99.90;;;;;;4941798;28;20053;-70
2024/03/21 09:12:03;;;;;;;30.38;27.77;;;11.60;99.90;;;;;;4946855;28;20081;-70
2024/03/21 09:14:29;;;;;;;31.27;28.77;;;11.40;99.90;;;;;;4970159;28;20043;-70
2024/03/21 09:16:56;;;;;;;30.35;27.35;;;11.40;99.90;;;;;;4966207;28;20072;-71
2024/03/21 09:19:22;;;;;;;33.03;30.25;;;11.60;99.90;;;;;;4954775;28;20118;-67
2024/03/21 09:21:48;;;;;;;35.50;32.70;;;11.70;99.90;;;;;;4966553;28;20130;-70
2024/03/21 09:24:14;;;;;;;32.53;29.83;;;11.60;99.90;;;;;;4954771;28;20043;-70
2024/03/21 09:26:41;;;;;;;34.10;31.30;;;11.40;99.90;;;;;;4957115;28;20043;-68
2024/03/21 09:29:08;;;;;;;33.47;30.77;;;11.40;99.90;;;;;;4966847;28;20104;-70
2024/03/21 09:31:34;;;;;;;34.17;31.58;;;11.50;99.90;;;;;;4951860;28;20106;-69
2024/03/21 09:34:01;;;;;;;34.85;31.95;;;11.60;99.90;;;;;;4967002;28;21204;-70
2024/03/21 09:36:28;;;;;;;34.17;31.60;;;11.70;99.90;;;;;;4959915;28;20499;-70
2024/03/21 09:38:55;;;;;;;33.20;30.67;;;12.00;99.90;;;;;;4949809;28;20533;-70
2024/03/21 09:41:21;;;;;;;31.25;28.88;;;11.90;99.90;;;;;;4954286;28;20053;-70
2024/03/21 09:43:47;;;;;;;38.88;35.83;;;11.80;99.90;;;;;;4936750;28;20057;-70
2024/03/21 09:46:16;;;;;;;31.63;29.15;;;11.60;99.90;;;;;;4949426;28;20031;-69
2024/03/21 09:48:43;;;;;;;31.60;28.90;;;11.20;99.90;;;;;;4943268;28;20050;-68
2024/03/21 09:51:19;;;;;;;31.00;28.33;;;11.10;99.90;;;;;;4966082;28;20042;-69
2024/03/21 09:53:46;;;;;;;29.95;27.38;;;10.90;99.90;;;;;;4957048;28;20034;-68
2024/03/21 09:56:16;;;;;;;28.85;26.55;;;10.70;99.90;;;;;;4965751;28;20051;-70
2024/03/21 09:58:43;;;;;;;30.65;27.88;;;10.60;99.90;;;;;;4976331;28;20050;-69
2024/03/21 10:01:19;;;;;;;30.50;28.00;;;10.60;99.90;;;;;;4940823;28;20519;-69
2024/03/21 10:03:55;;;;;;;30.08;27.40;;;10.40;99.90;;;;;;4958847;28;20081;-66
2024/03/21 10:06:21;;;;;;;30.77;28.08;;;10.30;99.90;;;;;;4966200;28;20180;-71
2024/03/21 10:08:50;;;;;;;29.80;27.10;;;10.10;99.90;;;;;;4963092;28;20104;-72
2024/03/21 10:11:16;;;;;;;33.92;31.23;;;10.10;99.90;;;;;;4940175;28;20870;-70
2024/03/21 10:13:42;;;;;;;32.55;29.10;;;10.30;99.90;;;;;;4958518;28;20054;-68
2024/03/21 10:16:14;;;;;;;32.67;29.88;;;10.20;99.90;;;;;;4950576;28;20042;-70
2024/03/21 10:18:41;;;;;;;33.53;30.60;;;10.00;99.90;;;;;;4954440;28;20062;-69
2024/03/21 10:21:14;;;;;;;32.17;29.55;;;9.90;99.90;;;;;;4962125;28;20037;-70
2024/03/21 10:23:41;;;;;;;32.55;29.75;;;9.80;99.90;;;;;;4973419;28;20049;-69
2024/03/21 10:26:14;;;;;;;31.08;28.40;;;9.80;99.90;;;;;;4964147;28;20047;-69
2024/03/21 10:28:42;;;;;;;33.25;30.15;;;9.70;99.90;;;;;;4967315;28;20136;-71
2024/03/21 10:31:13;;;;;;;30.63;27.80;;;9.70;99.90;;;;;;4963766;28;20044;-70
2024/03/21 10:33:40;;;;;;;31.80;28.65;;;9.60;99.90;;;;;;4968960;28;20117;-70
2024/03/21 10:36:12;;;;;;;32.88;29.55;;;9.50;99.90;;;;;;4943257;28;20619;-69
2024/03/21 10:38:39;;;;;;;32.63;29.42;;;9.50;99.90;;;;;;4955906;28;20115;-69
2024/03/21 10:41:14;;;;;;;31.67;28.67;;;9.40;99.90;;;;;;4946910;28;20042;-70
2024/03/21 10:43:45;;;;;;;33.15;29.55;;;9.40;99.90;;;;;;4968778;28;20602;-69
2024/03/21 10:46:12;;;;;;;32.97;29.98;;;9.50;99.90;;;;;;4947837;28;20065;-68
2024/03/21 10:48:40;;;;;;;32.72;29.30;;;9.60;99.90;;;;;;4966649;28;20039;-70
2024/03/21 10:51:11;;;;;;;33.28;29.88;;;9.40;99.90;;;;;;4955035;28;20518;-72
2024/03/21 10:53:37;;;;;;;30.88;28.13;;;9.40;99.90;;;;;;4971700;28;20069;-69
2024/03/21 10:56:08;;;;;;;30.98;27.92;;;9.40;99.90;;;;;;4940649;28;20134;-69
2024/03/21 10:58:42;;;;;;;32.92;29.00;;;9.30;99.90;;;;;;4952883;28;20074;-69
2024/03/21 11:01:10;;;;;;;29.83;27.35;;;9.30;99.90;;;;;;4953441;28;20043;-68
2024/03/21 11:04:12;;;;;;;30.63;27.90;;;9.20;99.90;;;;;;4965752;28;20049;-70
2024/03/21 11:06:41;;;;;;;30.40;27.77;;;9.10;99.90;;;;;;4944241;28;20416;-69
2024/03/21 11:09:07;;;;;;;29.27;26.63;;;9.10;99.90;;;;;;4942795;28;20058;-68
2024/03/21 11:11:34;;;;;;;30.67;28.23;;;9.10;99.90;;;;;;4966225;28;20038;-70
2024/03/21 11:14:01;;;;;;;29.73;27.08;;;9.00;99.90;;;;;;4951299;28;20585;-71
2024/03/21 11:16:28;;;;;;;29.20;26.48;;;9.00;99.90;;;;;;4932447;28;20042;-72
2024/03/21 11:18:56;;;;;;;30.42;27.35;;;9.10;99.90;;;;;;4954868;28;20054;-72
2024/03/21 11:21:22;;;;;;;28.25;26.00;;;9.30;99.90;;;;;;4943874;28;20051;-69
2024/03/21 11:23:49;;;;;;;29.05;26.33;;;9.20;99.90;;;;;;4946263;28;20049;-71
2024/03/21 11:26:17;;;;;;;29.67;26.95;;;9.30;99.90;;;;;;4942134;28;20113;-71
2024/03/21 11:28:45;;;;;;;27.95;25.55;;;9.40;99.90;;;;;;4953562;28;20050;-72
2024/03/21 11:31:23;;;;;;;28.83;26.15;;;9.50;99.90;;;;;;4979071;28;20042;-70
2024/03/21 11:33:50;;;;;;;28.95;26.60;;;9.60;99.90;;;;;;4979336;28;20042;-71
2024/03/21 11:36:17;;;;;;;29.88;26.80;;;9.70;99.90;;;;;;4934272;28;20041;-72
2024/03/21 11:38:44;;;;;;;29.27;26.88;;;9.70;99.90;;;;;;4941002;28;20096;-71
2024/03/21 11:41:31;;;;;;;28.75;26.52;;;9.70;99.90;;;;;;4949134;28;20665;-71
2024/03/21 11:43:58;;;;;;;28.73;26.58;;;9.70;99.90;;;;;;4953643;28;20050;-71
2024/03/21 11:46:25;;;;;;;28.35;26.23;;;9.50;99.90;;;;;;4949223;28;22223;-71
2024/03/21 11:49:14;;;;;;;31.25;28.55;;;9.20;99.90;;;;;;4951455;28;20050;-72
2024/03/21 11:51:42;;;;;;;30.75;28.27;;;9.30;99.90;;;;;;4954845;28;20050;-71
2024/03/21 11:54:09;;;;;;;29.75;27.00;;;9.30;99.90;;;;;;4947039;28;20122;-71
2024/03/21 11:56:41;;;;;;;28.40;26.30;;;9.30;99.90;;;;;;4969570;28;20049;-72
2024/03/21 11:59:08;;;;;;;28.70;26.20;;;9.30;99.90;;;;;;4950182;28;20046;-70
2024/03/21 12:01:34;;;;;;;32.55;29.83;;;9.40;99.90;;;;;;4945725;28;20516;-72
2024/03/21 12:04:01;;;;;;;30.80;28.15;;;9.40;99.90;;;;;;4932456;28;20031;-72
2024/03/21 12:06:27;;;;;;;26.50;24.38;;;9.50;99.90;;;;;;4969341;28;20039;-72
2024/03/21 12:08:54;;;;;;;27.80;25.15;;;9.30;99.90;;;;;;4956917;28;20046;-71
2024/03/21 12:11:21;;;;;;;28.23;25.58;;;9.50;99.90;;;;;;4951305;28;20862;-73
2024/03/21 12:13:48;;;;;;;29.58;26.88;;;9.90;99.90;;;;;;4948152;28;20563;-71
2024/03/21 12:16:18;;;;;;;27.50;25.60;;;10.00;99.90;;;;;;4962277;28;20072;-71
2024/03/21 12:18:46;;;;;;;27.05;25.17;;;10.00;99.90;;;;;;4950026;28;20077;-71
2024/03/21 12:21:19;;;;;;;28.80;26.65;;;10.00;99.90;;;;;;4958447;28;20097;-70
2024/03/21 12:23:47;;;;;;;28.13;25.67;;;9.90;99.90;;;;;;4966181;28;20053;-71
2024/03/21 12:26:15;;;;;;;27.98;26.00;;;10.00;99.90;;;;;;4946693;28;20070;-71
2024/03/21 12:28:42;;;;;;;28.63;26.30;;;10.00;99.90;;;;;;4970615;28;20097;-72
2024/03/21 12:31:14;;;;;;;29.15;26.77;;;10.10;99.90;;;;;;4966194;28;20057;-70
2024/03/21 12:33:44;;;;;;;29.88;27.63;;;10.30;99.90;;;;;;4965959;28;20050;-72
2024/03/21 12:36:11;;;;;;;28.80;26.80;;;10.30;99.90;;;;;;4945835;28;21179;-72
2024/03/21 12:38:41;;;;;;;30.30;28.13;;;10.30;99.90;;;;;;4937633;28;20042;-72
2024/03/21 12:41:11;;;;;;;31.77;29.45;;;10.40;99.90;;;;;;4935415;28;20114;-72
2024/03/21 12:43:38;;;;;;;31.83;29.77;;;10.40;99.90;;;;;;4968961;28;20038;-71
2024/03/21 12:46:04;;;;;;;29.77;27.30;;;10.40;99.90;;;;;;4963651;28;20051;-72